Raytown, Missouri
Current Conditions -  °F | °C
As of 8:53 PM on Thursday 27 Nov 2014 (Local Time) from KLXT Reporting Station
Clear Clear  
Wind Chill: 25°   Ceiling: Unl
Heat Index: 32°   Visibility: 10mi
Dew Point: 22°   Wind: 8mph
Humidity: 66%   Direction: 140°SE
Pressure: 30.32"   Gusts: NA
Location:  39.01°N, 94.46°W
Report Text: KLXT 280253Z AUTO 14007KT 10SM CLR 00/M06 A3032 RMK AO2 SLP280 T00001056 56014 TSNO
Loading
Personal Weather Stations






























Interactive Weather Map New forecast layout! Learn more

10-Day Weather Forecast

Advertisements
Track Severe Weather on mobile